Thursday, December 18, 2014
04:00 UTC
  |  Log In   |  Register Free
Airport Search:

Fort Smith Regional Airport
(KFSM)

FAA data valid effective November 13, 2014 - January 08, 2015 (unless otherwise noted).

 
 
 
 
 
 
 
 
 
 
 
 
 
 

Current Aviation Weather for Fort Smith Regional Airport (KFSM)

The most recent METAR observation for KFSM was updated at: 0329
METAR Summary (Translated METAR)
KFSM
180253Z 10005KT 5SM RA BR OVC070 02/01 A3026 RMK AO2 SLP250 P0013 60044 T00220011 50010
KJSV
180315Z AUTO 10007KT 7SM -RA BKN007 BKN014 OVC050 02/01 A3023 RMK AO2
(22.2 nm NW from KFSM)
KRKR
180335Z AUTO 00000KT 5SM -RA OVC060 02/01 A3023 RMK AO2 P0004 T00240013
(22.6 nm SW from KFSM)
TAF Summary (Translated TAF)
KFSM
171729Z 1718/1818 07004KT P6SM -RA OVC050 TEMPO 1720/1724 2SM TSRA BKN030CB FM180600 07010KT 5SM BR OVC015 FM180900 07008KT 4SM BR OVC007 FM181200 07006KT 4SM BR OVC004
  Airport Weather Conditions for KFSM

 Current Weather at FSM
36° F
Rain Fog/Mist
East winds at 5.8 mph
FSM NOAA Radar

Pressure: 30.26 in
Humidity: 93%
Wind: East at 5.8 MPH (5 KT)
Dew Point: 34.0°F
Visibility: 5.00 mi


Airport Weather Forecast for KFSM

Translated METAR and TAF for KFSM
Translated METAR for KFSM (0401 UTC 18 December 2014)
found at http://aviationweather.gov/adds/metars/
 
METAR text: KFSM 180353Z 11009KT 10SM -RA OVC055 02/01 A3024 RMK AO2 SLP244 P0003 T00220006
Conditions at: KFSM (FORT SMITH , AR, US) observed 0353 UTC 18 December 2014
Temperature: 2.2°C (36°F)
Dewpoint: 0.6°C (33°F) [RH = 89%]
Pressure (altimeter): 30.24 inches Hg (1024.1 mb)
[Sea-level pressure: 1024.4 mb]
Winds: from the ESE (110 degrees) at 10 MPH (9 knots; 4.7 m/s)
Visibility: 10 or more miles (16+ km)
Ceiling: 5500 feet AGL
Clouds: overcast cloud deck at 5500 feet AGL
Weather: -RA  (light rain)
Translated TAF for KFSM
Forecast for: KFSM (FORT SMITH , AR, US)
TAF Text: KFSM 172337Z 1800/1824 07004KT 5SM -RA SCT008 SCT015 OVC050
Forecast period: 0000 to 0600 UTC 18 December 2014
Forecast type: FROM: standard forecast or significant change
Winds: from the ENE (70 degrees) at 5 MPH (4 knots; 2.1 m/s)
Visibility: 5 miles (8 km)
Ceiling: 5000 feet AGL
Clouds: scattered clouds at 800 feet AGL
scattered clouds at 1500 feet AGL
overcast cloud deck at 5000 feet AGL
Weather: -RA  (light rain)
TAF Text: TEMPO 1800/1802 3SM -RA BR BKN008
Forecast period: 0000 to 0200 UTC 18 December 2014
Forecast type: TEMPORARY: The following changes expected for less than half the time period
Visibility: 3 miles (5 km)
Ceiling: 800 feet AGL
Clouds: broken clouds at 800 feet AGL
Weather: -RA BR  (light rain, mist)
TAF Text: FM180600 07010KT 5SM BR OVC015
Forecast period: 0600 to 0900 UTC 18 December 2014
Forecast type: FROM: standard forecast or significant change
Winds: from the ENE (70 degrees) at 12 MPH (10 knots; 5.2 m/s)
Visibility: 5 miles (8 km)
Ceiling: 1500 feet AGL
Clouds: overcast cloud deck at 1500 feet AGL
Weather: BR  (mist)
TAF Text: FM180900 07008KT 4SM BR OVC007
Forecast period: 0900 to 1200 UTC 18 December 2014
Forecast type: FROM: standard forecast or significant change
Winds: from the ENE (70 degrees) at 9 MPH (8 knots; 4.2 m/s)
Visibility: 4 miles (6 km)
Ceiling: 700 feet AGL
Clouds: overcast cloud deck at 700 feet AGL
Weather: BR  (mist)
TAF Text: FM181200 07006KT 2SM BR OVC004
Forecast period: 1200 to 1600 UTC 18 December 2014
Forecast type: FROM: standard forecast or significant change
Winds: from the ENE (70 degrees) at 7 MPH (6 knots; 3.1 m/s)
Visibility: 2.00 miles (3.22 km)
Ceiling: 400 feet AGL
Clouds: overcast cloud deck at 400 feet AGL
Weather: BR  (mist)
TAF Text: FM181600 08005KT 4SM BR OVC007
Forecast period: 1600 to 2200 UTC 18 December 2014
Forecast type: FROM: standard forecast or significant change
Winds: from the E (80 degrees) at 6 MPH (5 knots; 2.6 m/s)
Visibility: 4 miles (6 km)
Ceiling: 700 feet AGL
Clouds: overcast cloud deck at 700 feet AGL
Weather: BR  (mist)
TAF Text: FM182200 07005KT 5SM BR OVC012
Forecast period: 2200 UTC 18 December 2014 to 0000 UTC 19 December 2014
Forecast type: FROM: standard forecast or significant change
Winds: from the ENE (70 degrees) at 6 MPH (5 knots; 2.6 m/s)
Visibility: 5 miles (8 km)
Ceiling: 1200 feet AGL
Clouds: overcast cloud deck at 1200 feet AGL
Weather: BR  (mist)

Find All Airport Services Find A Hotel Find A Rental Car Find A Golf Course Find A Restaurant $100 Hamburger



FBO's on the Field
FBO Company Facility Photos Services Transportation Aviation Fuel Prices: Prices include tax
Catering Weather Repair Courtesy Rental Type 100LL JetA JetA+ MOGAS 8087
 
TAC Air - FSM

This FBO has not yet been rated
FS:Independent
Last Updated: Dec-05
Login to update fuel prices
SS:
Contact TAC Air - FSMMore FBO Information
 
Add another FBO Facility Photos Catering Weather Repair Courtesy Rental Type 100LL JetA JetA+ MOGAS 8087
Services Transportation Aviation Fuel Prices: Prices include tax


model-print
model-print
model-print
model-print